^^
Datos históricos de la estación: Murcia-Puente Tocinos
Diario Informe para Febrero 10, 2019 Unidades:  Métrico    Ingés   Ambas
Diario Semanal Mensual Anual
  Máxima: Mínima: Promedio:
Temperatura: 19.3 °C 10.9 °C 14.9 °C
Punto de rocio: 8 °C 1.4 °C 4.6 °C
Humedad: 69% 31.5% 52%
Velocidad viento: 34.6km/h 0km/h 9.8km/h
Racha viento: 62.9km/h - -
Viento- - OSO
Presión: 1013.8 hPa 1010.3 hPa -
Precipitación: 0.5 mm    
 
 
Tabla de datos para Febrero 10, 2019
Hora Temperatura Punto de rocio Presión Viento Velocidad viento Racha viento Humedad Intensidad lluvia(por hora) Nubes
00:04 15.7 °C 4.3 °C 1012.7 hPa SSE 8.4 km/h 14.5 km/h 46.6% 0.0 mm
00:09 15.6 °C 4.6 °C 1012.7 hPa SE 7 km/h 12.9 km/h 47.9% 0.0 mm
00:14 15.3 °C 4.6 °C 1012.7 hPa SSE 5 km/h 13 km/h 48.8% 0.0 mm
00:19 15 °C 4.4 °C 1012.7 hPa SSE 5.8 km/h 13.7 km/h 49.3% 0.0 mm
00:24 14.8 °C 4.5 °C 1012.6 hPa SSE 6.9 km/h 14.5 km/h 50% 0.0 mm
00:29 14.8 °C 4.4 °C 1012.6 hPa Sur 6.9 km/h 11.3 km/h 50% 0.0 mm
00:34 14.8 °C 4.4 °C 1012.6 hPa Sur 6.9 km/h 11.3 km/h 50% 0.0 mm
00:39 14.8 °C 4.2 °C 1012.6 hPa Sur 7.2 km/h 13 km/h 49.1% 0.0 mm
00:44 14.8 °C 4.2 °C 1012.6 hPa Sur 7.6 km/h 14.8 km/h 49% 0.0 mm
00:49 14.9 °C 4.3 °C 1012.6 hPa SSO 8 km/h 14.5 km/h 49% 0.0 mm
00:54 14.9 °C 4.3 °C 1012.6 hPa SO 8.7 km/h 13 km/h 49% 0.0 mm
00:59 15 °C 4.4 °C 1012.6 hPa SO 8.1 km/h 13 km/h 49% 0.0 mm
01:04 15 °C 4.3 °C 1012.6 hPa SO 7.6 km/h 12.9 km/h 49% 0.0 mm
01:09 14.9 °C 4.3 °C 1012.5 hPa OSO 6.8 km/h 11.3 km/h 49% 0.0 mm
01:14 14.9 °C 4.5 °C 1012.5 hPa OSO 5.8 km/h 9.7 km/h 49.7% 0.0 mm
01:19 14.8 °C 4.4 °C 1012.6 hPa OSO 4.7 km/h 8 km/h 50.1% 0.0 mm
01:24 14.6 °C 4.6 °C 1012.6 hPa Oeste 3.2 km/h 7.4 km/h 51% 0.0 mm
01:29 14.4 °C 4.6 °C 1012.6 hPa ONO 3.5 km/h 8 km/h 51.9% 0.0 mm
01:34 14.2 °C 4.5 °C 1012.6 hPa NO 3.9 km/h 8 km/h 52% 0.0 mm
01:39 14.1 °C 4.4 °C 1012.5 hPa OSO 3.5 km/h 7.6 km/h 52.1% 0.0 mm
01:44 14.1 °C 4.5 °C 1012.5 hPa OSO 2.9 km/h 8 km/h 52.5% 0.0 mm
01:49 14.1 °C 4.4 °C 1012.6 hPa OSO 3.3 km/h 11.1 km/h 52% 0.0 mm
01:54 14.2 °C 4.4 °C 1012.6 hPa OSO 3.9 km/h 13.7 km/h 52% 0.0 mm
01:59 14.2 °C 4.3 °C 1012.6 hPa OSO 5.8 km/h 14.5 km/h 51.1% 0.0 mm
02:04 14.3 °C 4.3 °C 1012.6 hPa SO 7.6 km/h 12.9 km/h 51% 0.0 mm
02:09 14.3 °C 4.3 °C 1012.5 hPa SO 6.8 km/h 9.7 km/h 51% 0.0 mm
02:14 14.3 °C 4.3 °C 1012.5 hPa SO 5.8 km/h 9.7 km/h 51% 0.0 mm
02:19 14.3 °C 4.3 °C 1012.5 hPa SO 5.8 km/h 9.7 km/h 51% 0.0 mm
02:24 14.3 °C 4.3 °C 1012.3 hPa SO 5.8 km/h 9.7 km/h 51% 0.0 mm
02:29 14.3 °C 4.4 °C 1012.3 hPa Oeste 5 km/h 8 km/h 51.4% 0.0 mm
02:34 14 °C 4.6 °C 1012.3 hPa NNO 3.9 km/h 8 km/h 53.1% 0.0 mm
02:39 13.6 °C 4.6 °C 1012.2 hPa NNO 3.6 km/h 8 km/h 54.6% 0.0 mm
02:44 13.3 °C 4.6 °C 1012.2 hPa NNO 3.2 km/h 3.2 km/h 55.3% 0.0 mm
02:49 13.2 °C 4.7 °C 1012.2 hPa NNO 1.9 km/h 5.6 km/h 56.2% 0.0 mm
02:54 13.1 °C 4.8 °C 1012.2 hPa Calm   6.4 km/h 57% 0.0 mm
02:59 13 °C 4.6 °C 1012.2 hPa NE 2.4 km/h 7.6 km/h 57% 0.0 mm
03:04 12.8 °C 4.8 °C 1012.2 hPa NE 4.6 km/h 8 km/h 58% 0.0 mm
03:09 12.8 °C 4.7 °C 1012.1 hPa NE 4.7 km/h 8 km/h 58% 0.0 mm
03:14 12.8 °C 4.7 °C 1012.1 hPa NE 4.6 km/h 8 km/h 58% 0.0 mm
03:19 12.8 °C 4.7 °C 1012.1 hPa NE 3.7 km/h 4.8 km/h 57.8% 0.0 mm
03:24 12.9 °C 4.6 °C 1012.0 hPa NE 2.2 km/h 5.6 km/h 57.2% 0.0 mm
03:29 13 °C 4.6 °C 1012.0 hPa NE 2.2 km/h 4.8 km/h 57% 0.0 mm
03:34 13 °C 4.7 °C 1012.0 hPa SE 2.2 km/h 7.4 km/h 57% 0.0 mm
03:39 13.1 °C 4.8 °C 1011.8 hPa SSE 2.5 km/h 8 km/h 57% 0.0 mm
03:44 13.1 °C 4.8 °C 1011.8 hPa SSE 2.9 km/h 4.8 km/h 57% 0.0 mm
03:49 13.1 °C 4.8 °C 1011.8 hPa SSE 2.6 km/h 3.7 km/h 57% 0.0 mm
03:54 13.1 °C 4.8 °C 1011.8 hPa Sur 2.2 km/h 8.4 km/h 57% 0.0 mm
03:59 13.1 °C 4.8 °C 1011.8 hPa SSO 2.7 km/h 8 km/h 57% 0.0 mm
04:04 13.1 °C 4.8 °C 1012.0 hPa SSO 3.2 km/h 8 km/h 57% 0.0 mm
04:09 12.9 °C 4.8 °C 1012.0 hPa SSO 1.9 km/h 3.2 km/h 57.9% 0.0 mm
04:14 12.8 °C 4.7 °C 1012.0 hPa Calm     58.1% 0.0 mm
04:19 12.7 °C 4.9 °C 1012.1 hPa Calm     59% 0.0 mm
04:24 12.6 °C 5 °C 1012.1 hPa Calm     59.8% 0.0 mm
04:29 12.3 °C 4.8 °C 1012.1 hPa Calm     60% 0.0 mm
04:34 12.3 °C 4.7 °C 1012.1 hPa Calm     60% 0.0 mm
04:39 12.2 °C 4.7 °C 1011.9 hPa Calm     60% 0.0 mm
04:44 12.1 °C 4.6 °C 1011.9 hPa Calm     60% 0.0 mm
04:49 12.1 °C 4.8 °C 1011.9 hPa Calm     60.9% 0.0 mm
04:54 12.1 °C 4.8 °C 1011.8 hPa Calm   8.4 km/h 61% 0.0 mm
04:59 12.2 °C 4.9 °C 1011.8 hPa SO 1.9 km/h 8 km/h 61% 0.0 mm
05:04 12.3 °C 5 °C 1011.9 hPa OSO 3.9 km/h 8 km/h 61% 0.0 mm
05:09 12.2 °C 4.8 °C 1011.9 hPa ONO 3.9 km/h 8 km/h 61% 0.0 mm
05:14 11.8 °C 4.8 °C 1011.9 hPa North 3.9 km/h 8 km/h 61.9% 0.0 mm
05:19 11.5 °C 4.8 °C 1011.9 hPa North 3.9 km/h 8 km/h 63.2% 0.0 mm
05:24 11.3 °C 4.8 °C 1011.9 hPa NNE 3.9 km/h 7.4 km/h 64% 0.0 mm
05:29 11.2 °C 4.8 °C 1011.9 hPa North 3.9 km/h 8 km/h 64.9% 0.0 mm
05:34 11.1 °C 4.8 °C 1011.9 hPa NNE 3.9 km/h 8 km/h 65.5% 0.0 mm
05:39 10.9 °C 4.8 °C 1011.9 hPa NNE 3.4 km/h 8 km/h 66% 0.0 mm
05:44 10.9 °C 4.9 °C 1011.9 hPa NNE 2.9 km/h 6.4 km/h 66.4% 0.0 mm
05:49 10.9 °C 5 °C 1012.0 hPa NNE 2.9 km/h 4.8 km/h 67% 0.0 mm
05:54 10.9 °C 5 °C 1012.0 hPa NNE 2.9 km/h 4.7 km/h 67% 0.0 mm
05:59 10.9 °C 5 °C 1012.0 hPa NNE 2.6 km/h 4.8 km/h 67% 0.0 mm
06:04 11 °C 5 °C 1012.0 hPa NNE 2.2 km/h 3.7 km/h 66.6% 0.0 mm
06:09 11 °C 5.1 °C 1011.8 hPa NNE 1.3 km/h 4.7 km/h 66.8% 0.0 mm
06:14 11 °C 5.1 °C 1011.8 hPa Calm   4.8 km/h 67% 0.0 mm
06:19 10.9 °C 5 °C 1011.9 hPa Calm   5.8 km/h 66.7% 0.0 mm
06:24 11 °C 5.1 °C 1011.9 hPa Calm   7.4 km/h 66.6% 0.0 mm
06:29 11.2 °C 5.1 °C 1011.9 hPa SE 1.9 km/h 8 km/h 66% 0.0 mm
06:34 11.3 °C 5.2 °C 1011.9 hPa SSE 4.7 km/h 8 km/h 65.7% 0.0 mm
06:39 11.4 °C 5.1 °C 1011.9 hPa NNE 4.3 km/h 8 km/h 65% 0.0 mm
06:44 11.4 °C 5.2 °C 1011.9 hPa ENE 3.9 km/h 8 km/h 65.6% 0.0 mm
06:49 11.4 °C 5.3 °C 1011.9 hPa SE 3.9 km/h 8 km/h 66% 0.0 mm
06:54 11.4 °C 5 °C 1011.9 hPa SE 3.9 km/h 9.3 km/h 65% 0.0 mm
06:59 11.2 °C 4.9 °C 1011.9 hPa SE 4.4 km/h 9.7 km/h 65% 0.0 mm
07:04 11.1 °C 4.8 °C 1011.9 hPa SE 5 km/h 9.7 km/h 65% 0.0 mm
07:09 11 °C 4.6 °C 1011.9 hPa SE 5.3 km/h 9.7 km/h 65.1% 0.0 mm
07:14 10.9 °C 4.7 °C 1011.9 hPa SE 5.8 km/h 9.7 km/h 65.8% 0.0 mm
07:19 10.9 °C 4.8 °C 1012.0 hPa SE 5.5 km/h 9.7 km/h 66% 0.0 mm
07:24 10.9 °C 4.8 °C 1012.0 hPa SE 5 km/h 9.7 km/h 65.9% 0.0 mm
07:29 11 °C 4.7 °C 1012.0 hPa SSE 5 km/h 9.7 km/h 65% 0.0 mm
07:34 11.1 °C 4.6 °C 1012.0 hPa Sur 5 km/h 9.5 km/h 64.1% 0.0 mm
07:39 11.2 °C 4.5 °C 1011.9 hPa SSE 5.6 km/h 9.7 km/h 63.2% 0.0 mm
07:44 11.3 °C 4.6 °C 1011.9 hPa Sur 6.5 km/h 11.1 km/h 63.7% 0.0 mm
07:49 11.2 °C 4.6 °C 1011.9 hPa Sur 6.7 km/h 11.3 km/h 64% 0.0 mm
07:54 11.2 °C 4.5 °C 1011.9 hPa Sur 6.9 km/h 9.7 km/h 63.6% 0.0 mm
07:59 11.4 °C 4.5 °C 1011.9 hPa Sur 6.9 km/h 9.7 km/h 62.5% 0.0 mm
08:04 11.7 °C 4.5 °C 1011.9 hPa Sur 6.9 km/h 9.7 km/h 61.2% 0.0 mm
08:09 11.8 °C 4.5 °C 1011.9 hPa Sur 6.5 km/h 9.7 km/h 60.9% 0.0 mm
08:14 12 °C 4.4 °C 1011.9 hPa Sur 5.8 km/h 9.7 km/h 60% 0.0 mm
08:19 12.1 °C 4.5 °C 1012.2 hPa Sur 6 km/h 10 km/h 60% 0.0 mm
08:24 12.2 °C 4.6 °C 1012.2 hPa Sur 6.5 km/h 9.7 km/h 60% 0.0 mm
08:29 12.3 °C 4.6 °C 1012.2 hPa SSO 6.2 km/h 9.7 km/h 59.4% 0.0 mm
08:34 12.4 °C 4.6 °C 1012.4 hPa SSO 5.8 km/h 8 km/h 59% 0.0 mm
08:39 12.7 °C 4.6 °C 1012.4 hPa SSO 5.5 km/h 9.5 km/h 58% 0.0 mm
08:44 12.9 °C 4.7 °C 1012.4 hPa SO 5 km/h 9.7 km/h 57.4% 0.0 mm
08:49 13.1 °C 4.8 °C 1012.4 hPa OSO 4.9 km/h 8 km/h 57% 0.0 mm
08:54 13.3 °C 4.9 °C 1012.4 hPa Oeste 4.6 km/h 8.4 km/h 57% 0.0 mm
08:59 13.4 °C 4.9 °C 1012.4 hPa OSO 4.3 km/h 8 km/h 56.2% 0.0 mm
09:04 13.7 °C 4.9 °C 1012.5 hPa OSO 3.9 km/h 8 km/h 55.3% 0.0 mm
09:09 13.8 °C 4.8 °C 1012.5 hPa OSO 3.6 km/h 6.4 km/h 54.7% 0.0 mm
09:14 14.1 °C 4.9 °C 1012.5 hPa Oeste 3.2 km/h 5.8 km/h 54% 0.0 mm
09:19 14.3 °C 5.4 °C 1012.6 hPa ONO 3.2 km/h 6.4 km/h 55.2% 0.0 mm
09:24 14.6 °C 5.5 °C 1012.6 hPa ONO 3.2 km/h 7.4 km/h 54.7% 0.0 mm
09:29 14.7 °C 5.3 °C 1012.6 hPa ONO 3.2 km/h 8.7 km/h 53.3% 0.0 mm
09:34 14.8 °C 5.1 °C 1012.6 hPa ONO 3.2 km/h 9.7 km/h 52.3% 0.0 mm
09:39 14.8 °C 4.9 °C 1012.6 hPa ONO 4 km/h 9.7 km/h 51.5% 0.0 mm
09:44 14.9 °C 4.9 °C 1012.6 hPa NO 5 km/h 9.7 km/h 51% 0.0 mm
09:49 15.1 °C 5.1 °C 1012.6 hPa ONO 5.3 km/h 10 km/h 51% 0.0 mm
09:54 15.3 °C 4.8 °C 1012.6 hPa NO 5.8 km/h 13 km/h 49.5% 0.0 mm
09:59 15.4 °C 4.3 °C 1012.6 hPa ONO 6.3 km/h 15.6 km/h 47.6% 0.0 mm
10:04 15.6 °C 4.2 °C 1012.7 hPa ONO 6.9 km/h 16.1 km/h 46.8% 0.0 mm
10:09 15.7 °C 3.9 °C 1012.7 hPa Oeste 7.7 km/h 16.7 km/h 45.5% 0.0 mm
10:14 15.8 °C 4.1 °C 1012.7 hPa ONO 8.7 km/h 18.5 km/h 45.8% 0.0 mm
10:19 15.8 °C 4.2 °C 1012.7 hPa Oeste 9.4 km/h 20.9 km/h 46% 0.0 mm
10:24 15.8 °C 4.4 °C 1012.6 hPa OSO 10.3 km/h 20.9 km/h 46.7% 0.0 mm
10:29 16 °C 4.6 °C 1012.6 hPa ONO 9.2 km/h 18.5 km/h 46.6% 0.0 mm
10:34 16.1 °C 4.5 °C 1012.7 hPa NO 7.6 km/h 19.3 km/h 46% 0.0 mm
10:39 16.1 °C 4.5 °C 1012.7 hPa ONO 8.4 km/h 17.7 km/h 46% 0.0 mm
10:44 16.2 °C 4.6 °C 1012.7 hPa ONO 9.5 km/h 20.4 km/h 46% 0.0 mm
10:49 16.2 °C 4.6 °C 1012.7 hPa ONO 9.8 km/h 22.5 km/h 46.1% 0.0 mm
10:54 16.2 °C 4.6 °C 1012.7 hPa ONO 10.3 km/h 22.5 km/h 46.3% 0.0 mm
10:59 16.3 °C 4.8 °C 1012.7 hPa ONO 12.1 km/h 20.9 km/h 46.4% 0.0 mm
11:04 16.4 °C 4.8 °C 1012.7 hPa ONO 14 km/h 24.1 km/h 46.1% 0.0 mm
11:09 16.6 °C 4.8 °C 1012.6 hPa NO 13.9 km/h 26.2 km/h 45.6% 0.0 mm
11:14 16.6 °C 4.7 °C 1012.6 hPa NO 13.7 km/h 25.7 km/h 45.1% 0.0 mm
11:19 16.8 °C 4.7 °C 1012.7 hPa ONO 13.1 km/h 26.2 km/h 44.7% 0.0 mm
11:24 16.8 °C 4.6 °C 1012.7 hPa ONO 12.2 km/h 25.9 km/h 44.5% 0.0 mm
11:29 16.9 °C 4.6 °C 1012.7 hPa ONO 12.6 km/h 25.9 km/h 44.2% 0.0 mm
11:34 16.9 °C 4.6 °C 1012.8 hPa ONO 13 km/h 25.7 km/h 43.9% 0.0 mm
11:39 17.1 °C 4.1 °C 1012.8 hPa Oeste 12.7 km/h 20.9 km/h 42.1% 0.0 mm
11:44 17.2 °C 4.2 °C 1012.8 hPa NO 12.2 km/h 30.6 km/h 42% 0.0 mm
11:49 17.2 °C 4 °C 1012.8 hPa ONO 13.9 km/h 33.3 km/h 41.5% 0.0 mm
11:54 17.2 °C 4.2 °C 1012.8 hPa ONO 16.4 km/h 33.8 km/h 42% 0.0 mm
11:59 17.2 °C 4.1 °C 1012.8 hPa ONO 16.8 km/h 33.8 km/h 41.7% 0.0 mm
12:04 17.3 °C 4.2 °C 1012.8 hPa NO 17.2 km/h 35.2 km/h 42% 0.0 mm
12:09 17.4 °C 4.1 °C 1012.7 hPa NO 17.5 km/h 35.4 km/h 41.3% 0.0 mm
12:14 17.4 °C 3.8 °C 1012.7 hPa ONO 18 km/h 41.2 km/h 40.5% 0.0 mm
12:19 17.2 °C 3.2 °C 1012.7 hPa ONO 20.3 km/h 41.8 km/h 39.3% 0.0 mm
12:24 17.3 °C 3.2 °C 1012.7 hPa ONO 23.7 km/h 40.7 km/h 39% 0.0 mm
12:29 17.3 °C 3.2 °C 1012.7 hPa ONO 22.9 km/h 40.7 km/h 39% 0.0 mm
12:34 17.2 °C 3.2 °C 1012.7 hPa ONO 21.7 km/h 37 km/h 39.3% 0.0 mm
12:39 17.3 °C 3.4 °C 1012.5 hPa ONO 20.7 km/h 37 km/h 39.3% 0.0 mm
12:44 17.3 °C 3.4 °C 1012.5 hPa NO 19 km/h 37 km/h 39.5% 0.0 mm
12:49 17.3 °C 3.4 °C 1012.5 hPa ONO 20.3 km/h 33.8 km/h 39.5% 0.0 mm
12:54 17.3 °C 3.4 °C 1012.3 hPa NO 22.1 km/h 29.6 km/h 39.7% 0.0 mm
12:59 17.5 °C 3.5 °C 1012.3 hPa NO 20.3 km/h 29 km/h 39.3% 0.0 mm
13:04 17.6 °C 3.4 °C 1012.3 hPa ONO 18.4 km/h 27.4 km/h 38.8% 0.0 mm
13:09 17.7 °C 3.5 °C 1012.2 hPa NO 17.5 km/h 37 km/h 38.6% 0.0 mm
13:14 17.9 °C 3.5 °C 1012.2 hPa NNO 16.1 km/h 37 km/h 38.4% 0.0 mm
13:19 18 °C 3.4 °C 1012.2 hPa NO 16.5 km/h 37 km/h 38% 0.0 mm
13:24 17.9 °C 3.4 °C 1012.0 hPa ONO 17.2 km/h 37 km/h 38% 0.0 mm
13:29 18.1 °C 3.4 °C 1012.0 hPa NO 17.7 km/h 37 km/h 37.5% 0.0 mm
13:34 18.1 °C 3 °C 1012.0 hPa ONO 18.4 km/h 37 km/h 36.7% 0.0 mm
13:39 18.1 °C 3 °C 1011.9 hPa ONO 20.3 km/h 37 km/h 36.6% 0.0 mm
13:44 18.2 °C 3.1 °C 1011.9 hPa ONO 23.3 km/h 37 km/h 36.7% 0.0 mm
13:49 18.3 °C 3.2 °C 1011.9 hPa NO 21.6 km/h 38.9 km/h 36.6% 0.0 mm
13:54 18.3 °C 3.1 °C 1011.8 hPa NO 19 km/h 38.6 km/h 36.3% 0.0 mm
13:59 18.2 °C 3.1 °C 1011.8 hPa NNO 19.5 km/h 37 km/h 36.6% 0.0 mm
14:04 18.5 °C 3.1 °C 1011.8 hPa ONO 20.1 km/h 37.8 km/h 35.8% 0.0 mm
14:09 18.5 °C 2.8 °C 1011.8 hPa NO 19.7 km/h 37 km/h 35.2% 0.0 mm
14:14 18.3 °C 2.9 °C 1011.8 hPa NO 19 km/h 32.2 km/h 35.7% 0.0 mm
14:19 18.6 °C 2.9 °C 1011.8 hPa NO 17.9 km/h 31.5 km/h 35.3% 0.0 mm
14:24 18.5 °C 3 °C 1011.8 hPa NO 16.1 km/h 32.2 km/h 35.8% 0.0 mm
14:29 18.5 °C 2.9 °C 1011.8 hPa NO 16.6 km/h 33.5 km/h 35.4% 0.0 mm
14:34 18.3 °C 2.9 °C 1011.8 hPa NO 17.2 km/h 33.8 km/h 35.8% 0.0 mm
14:39 18.4 °C 2.8 °C 1011.7 hPa NO 16.9 km/h 33.8 km/h 35.4% 0.0 mm
14:44 18.5 °C 2.7 °C 1011.7 hPa ONO 16.4 km/h 33.8 km/h 35% 0.0 mm
14:49 18.6 °C 2.6 °C 1011.7 hPa ONO 16.7 km/h 35.2 km/h 34.6% 0.0 mm
14:54 18.6 °C 2 °C 1011.7 hPa ONO 17.2 km/h 35.4 km/h 33.2% 0.0 mm
14:59 18.5 °C 1.9 °C 1011.7 hPa ONO 16.8 km/h 29 km/h 32.9% 0.0 mm
15:04 18.4 °C 1.9 °C 1011.7 hPa ONO 16.4 km/h 29.1 km/h 33.1% 0.0 mm
15:09 18.4 °C 1.9 °C 1011.6 hPa ONO 16.3 km/h 29 km/h 33.1% 0.0 mm
15:14 18.4 °C 1.9 °C 1011.6 hPa ONO 16.1 km/h 26.2 km/h 33.2% 0.0 mm
15:19 18.6 °C 1.8 °C 1011.6 hPa ONO 15.1 km/h 26.2 km/h 32.6% 0.0 mm
15:24 18.7 °C 2 °C 1011.5 hPa ONO 13.7 km/h 27.8 km/h 32.8% 0.0 mm
15:29 18.7 °C 1.4 °C 1011.5 hPa Oeste 13.8 km/h 35.2 km/h 31.5% 0.0 mm
15:34 18.7 °C 1.9 °C 1011.5 hPa NO 14 km/h 35.4 km/h 32.4% 0.0 mm
15:39 18.8 °C 2.2 °C 1011.4 hPa ONO 13.9 km/h 25.9 km/h 32.9% 0.0 mm
15:44 18.8 °C 1.9 °C 1011.4 hPa NO 13.7 km/h 33.5 km/h 32.5% 0.0 mm
15:49 18.7 °C 1.6 °C 1011.4 hPa NO 15.6 km/h 38.9 km/h 32% 0.0 mm
15:54 18.6 °C 1.6 °C 1011.2 hPa NO 18.4 km/h 38.6 km/h 32% 0.0 mm
15:59 18.7 °C 1.6 °C 1011.2 hPa NO 18.2 km/h 30.6 km/h 32% 0.0 mm
16:04 18.8 °C 1.7 °C 1011.2 hPa ONO 18 km/h 27.4 km/h 32% 0.0 mm
16:09 18.8 °C 1.7 °C 1011.1 hPa NO 16.4 km/h 22.5 km/h 32% 0.0 mm
16:14 18.8 °C 2.1 °C 1011.1 hPa ONO 14 km/h 31.5 km/h 32.8% 0.0 mm
16:19 18.6 °C 2.5 °C 1011.1 hPa NO 14.3 km/h 32.2 km/h 34.3% 0.0 mm
16:24 18.4 °C 2.8 °C 1011.0 hPa NO 14.8 km/h 28.2 km/h 35.5% 0.0 mm
16:29 18.4 °C 3.3 °C 1011.0 hPa NO 14.5 km/h 27.8 km/h 36.7% 0.0 mm
16:34 18.4 °C 3.4 °C 1011.0 hPa NO 14 km/h 27.4 km/h 37% 0.0 mm
16:39 18.3 °C 3.4 °C 1010.7 hPa NNO 12.9 km/h 19.3 km/h 37% 0.0 mm
16:44 18.3 °C 3.3 °C 1010.7 hPa ONO 11.1 km/h 20.9 km/h 36.9% 0.0 mm
16:49 18.5 °C 3 °C 1010.7 hPa NO 10.7 km/h 22.2 km/h 35.6% 0.0 mm
16:54 18.6 °C 2.7 °C 1010.6 hPa NO 10 km/h 22.5 km/h 34.8% 0.0 mm
16:59 18.7 °C 2.7 °C 1010.6 hPa NO 10 km/h 22.2 km/h 34.6% 0.0 mm
17:04 18.9 °C 2.5 °C 1010.6 hPa ONO 10 km/h 25.9 km/h 33.6% 0.0 mm
17:09 19.1 °C 2.5 °C 1010.4 hPa ONO 10.9 km/h 25.7 km/h 33% 0.0 mm
17:14 19.3 °C 2.6 °C 1010.4 hPa ONO 12.2 km/h 24.1 km/h 33% 0.0 mm
17:19 19.3 °C 2.4 °C 1010.4 hPa ONO 12.2 km/h 20.9 km/h 32.4% 0.0 mm
17:24 19.3 °C 2.6 °C 1010.3 hPa NO 12.2 km/h 20.4 km/h 33.1% 0.0 mm
17:29 19.3 °C 3 °C 1010.3 hPa NNO 11.8 km/h 20.9 km/h 34% 0.0 mm
17:34 19.3 °C 2.8 °C 1010.5 hPa NNO 11.1 km/h 38.9 km/h 33.5% 0.0 mm
17:39 18.6 °C 3.8 °C 1010.5 hPa NNO 12.9 km/h 38.9 km/h 37.6% 0.0 mm
17:44 17.6 °C 3.9 °C 1010.5 hPa NO 15.6 km/h 37 km/h 40% 0.0 mm
17:49 17.2 °C 3.8 °C 1010.9 hPa NO 17.4 km/h 37.8 km/h 41% 0.0 mm
17:54 16.9 °C 3.6 °C 1010.9 hPa NO 20.1 km/h 46.8 km/h 41% 0.0 mm
17:59 16.5 °C 3.7 °C 1010.9 hPa NO 22.2 km/h 46.7 km/h 42.3% 0.0 mm
18:04 16 °C 3.9 °C 1011.4 hPa NO 24.5 km/h 45.1 km/h 44.6% 0.0 mm
18:09 15.8 °C 4.2 °C 1011.4 hPa NO 24.9 km/h 45.1 km/h 46.2% 0.0 mm
18:14 15.5 °C 4.4 °C 1011.4 hPa NO 25.6 km/h 41.8 km/h 47.7% 0.0 mm
18:19 15.3 °C 4.6 °C 1011.8 hPa NNO 22.8 km/h 40.2 km/h 49% 0.0 mm
18:24 15.3 °C 4.6 °C 1011.8 hPa NO 19 km/h 36.2 km/h 48.9% 0.0 mm
18:29 15.3 °C 4.4 °C 1011.8 hPa NO 17.6 km/h 46.3 km/h 48% 0.0 mm
18:34 15.2 °C 4.7 °C 1011.9 hPa NO 15.6 km/h 46.7 km/h 49.6% 0.0 mm
18:39 14.8 °C 5.3 °C 1011.9 hPa ONO 18.4 km/h 52.6 km/h 53.1% 0.0 mm
18:44 14.3 °C 5.6 °C 1011.9 hPa ONO 22.5 km/h 62.9 km/h 55.6% 0.0 mm
18:49 14.1 °C 5.9 °C 1011.9 hPa NO 27.2 km/h 62.8 km/h 57.9% 0.0 mm
18:54 13.8 °C 6.4 °C 1011.9 hPa NO 34.6 km/h 56 km/h 60.7% 0.0 mm
18:59 13.7 °C 6.5 °C 1011.9 hPa ONO 33.1 km/h 56.3 km/h 62% 0.0 mm
19:04 13.3 °C 7.1 °C 1012.7 hPa ONO 31.7 km/h 56.3 km/h 66.1% 0.5 mm
19:09 13 °C 6.9 °C 1012.7 hPa ONO 27.2 km/h 46.7 km/h 66.7% 0.5 mm
19:14 12.9 °C 6.9 °C 1012.7 hPa ONO 20.9 km/h 22.5 km/h 67% 0.5 mm
19:19 13 °C 7.3 °C 1012.7 hPa Oeste 14.3 km/h 8 km/h 68.4% 0.5 mm
19:24 13.1 °C 7.4 °C 1012.2 hPa Oeste 3.9 km/h 3.2 km/h 68.4% 0.5 mm
19:29 13.2 °C 7.3 °C 1012.2 hPa Oeste 2.3 km/h 9.5 km/h 67.2% 0.5 mm
19:34 13.4 °C 7.5 °C 1012.2 hPa Calm   11.1 km/h 67.8% 0.5 mm
19:39 13.6 °C 8 °C 1012.0 hPa Oeste 2.7 km/h 11.3 km/h 69% 0.5 mm
19:44 13.6 °C 8 °C 1012.0 hPa OSO 6.5 km/h 14.8 km/h 68.8% 0.5 mm
19:49 13.7 °C 7.8 °C 1012.1 hPa SO 6.9 km/h 14.8 km/h 67.7% 0.5 mm
19:54 13.8 °C 7.4 °C 1012.1 hPa SO 7.6 km/h 16.7 km/h 65% 0.5 mm
19:59 14.1 °C 7 °C 1012.1 hPa SO 8.8 km/h 16.7 km/h 62% 0.5 mm
20:04 14.3 °C 6.8 °C 1012.3 hPa OSO 10 km/h 18.3 km/h 60.6% 0.5 mm
20:09 14.4 °C 7 °C 1012.3 hPa OSO 10.1 km/h 17.7 km/h 60.9% 0.2 mm
20:14 14.6 °C 7.1 °C 1012.3 hPa OSO 10.3 km/h 18.5 km/h 60.8% 0.0 mm
20:19 14.6 °C 7.3 °C 1012.5 hPa OSO 10.2 km/h 19.3 km/h 61.6% 0.0 mm
20:24 14.6 °C 7.3 °C 1012.5 hPa OSO 10 km/h 18 km/h 61.6% 0.0 mm
20:29 14.6 °C 7.2 °C 1012.5 hPa OSO 9.5 km/h 18.3 km/h 61.1% 0.0 mm
20:34 14.6 °C 7 °C 1012.5 hPa OSO 8.7 km/h 19.3 km/h 60.6% 0.0 mm
20:39 14.6 °C 7.2 °C 1012.5 hPa OSO 8.7 km/h 17.7 km/h 61% 0.0 mm
20:44 14.5 °C 7.3 °C 1012.5 hPa OSO 8.7 km/h 16.7 km/h 61.8% 0.0 mm
20:49 14.4 °C 7.2 °C 1012.6 hPa OSO 8.6 km/h 16.1 km/h 62% 0.0 mm
20:54 14.4 °C 7.2 °C 1012.6 hPa OSO 8.4 km/h 13.7 km/h 62% 0.0 mm
20:59 14.4 °C 6.9 °C 1012.6 hPa OSO 8.4 km/h 19 km/h 61% 0.0 mm
21:04 14.4 °C 6.7 °C 1012.9 hPa OSO 8.4 km/h 20.4 km/h 60.1% 0.0 mm
21:09 14.4 °C 6.7 °C 1012.9 hPa OSO 9.1 km/h 20.9 km/h 59.7% 0.0 mm
21:14 14.4 °C 6.6 °C 1012.9 hPa OSO 10.3 km/h 20.4 km/h 59.7% 0.0 mm
21:19 14.3 °C 6.6 °C 1012.9 hPa OSO 11.1 km/h 20.9 km/h 59.9% 0.0 mm
21:24 14.3 °C 6.6 °C 1012.9 hPa OSO 12.2 km/h 20.4 km/h 60% 0.0 mm
21:29 14.3 °C 6.6 °C 1012.9 hPa OSO 11.5 km/h 22.2 km/h 60% 0.0 mm
21:34 14.2 °C 6.6 °C 1013.0 hPa OSO 10.3 km/h 22.5 km/h 60% 0.0 mm
21:39 14.1 °C 6.5 °C 1013.0 hPa OSO 10.6 km/h 20.9 km/h 60.3% 0.0 mm
21:44 14 °C 6.5 °C 1013.0 hPa OSO 11.1 km/h 19.3 km/h 60.6% 0.0 mm
21:49 14 °C 6.5 °C 1013.0 hPa OSO 11.1 km/h 19.3 km/h 60.6% 0.0 mm
21:54 14 °C 6.4 °C 1013.0 hPa OSO 11.1 km/h 19.3 km/h 60.2% 0.0 mm
21:59 14 °C 6.3 °C 1013.0 hPa OSO 10.6 km/h 19.3 km/h 60% 0.0 mm
22:04 14.1 °C 6.3 °C 1013.2 hPa OSO 10 km/h 19 km/h 59.3% 0.0 mm
22:09 14.1 °C 6.2 °C 1013.2 hPa OSO 10.1 km/h 19.3 km/h 59.1% 0.0 mm
22:14 14.1 °C 6.2 °C 1013.2 hPa OSO 10.3 km/h 19.3 km/h 59% 0.0 mm
22:19 14.1 °C 6.2 °C 1013.6 hPa OSO 9.6 km/h 17.7 km/h 59% 0.0 mm
22:24 14.1 °C 6.2 °C 1013.6 hPa OSO 8.4 km/h 14.8 km/h 59% 0.0 mm
22:29 14.1 °C 6.2 °C 1013.6 hPa SO 8.4 km/h 14.8 km/h 59.1% 0.0 mm
22:34 13.9 °C 6.3 °C 1013.6 hPa SO 8.4 km/h 19 km/h 59.9% 0.0 mm
22:39 13.9 °C 6.1 °C 1013.6 hPa SO 9.1 km/h 19.3 km/h 59.3% 0.0 mm
22:44 13.8 °C 6 °C 1013.6 hPa SO 10.3 km/h 17.7 km/h 59% 0.0 mm
22:49 13.8 °C 5.9 °C 1013.8 hPa SO 9.3 km/h 12.9 km/h 59% 0.0 mm
22:54 13.8 °C 5.9 °C 1013.8 hPa SO 7.6 km/h 13.7 km/h 58.9% 0.0 mm
22:59 13.8 °C 5.9 °C 1013.8 hPa SO 7.6 km/h 14.8 km/h 58.7% 0.0 mm
23:04 13.8 °C 5.8 °C 1013.8 hPa SSO 7.6 km/h 14.5 km/h 58.3% 0.0 mm
23:09 13.8 °C 5.7 °C 1013.7 hPa Sur 7.1 km/h 13 km/h 58.3% 0.0 mm
23:14 13.8 °C 6 °C 1013.7 hPa SE 6.5 km/h 12.9 km/h 59.3% 0.0 mm
23:19 13.7 °C 6.1 °C 1013.8 hPa SE 5.2 km/h 8 km/h 60% 0.0 mm
23:24 13.6 °C 5.8 °C 1013.8 hPa SO 3.2 km/h 14.8 km/h 59.4% 0.0 mm
23:29 13.6 °C 5.7 °C 1013.8 hPa OSO 4.5 km/h 14.5 km/h 58.8% 0.0 mm
23:34 13.7 °C 5.5 °C 1013.8 hPa OSO 6.5 km/h 16.7 km/h 58% 0.0 mm
23:39 13.7 °C 5.5 °C 1013.7 hPa OSO 7.2 km/h 16.1 km/h 57.7% 0.0 mm
23:44 13.7 °C 5.5 °C 1013.7 hPa Oeste 8.4 km/h 19 km/h 57.6% 0.0 mm
23:49 13.8 °C 5.4 °C 1013.7 hPa OSO 8.5 km/h 19.3 km/h 57% 0.0 mm
23:54 13.7 °C 5.5 °C 1013.6 hPa OSO 8.7 km/h 16.7 km/h 57.6% 0.0 mm
23:59 13.7 °C 5.5 °C 1013.6 hPa Oeste 8.5 km/h 16.1 km/h 58% 0.0 mm
Murcia-Puente Tocinos, España
Compliments of Weather Underground - 3 mb

La estación de MeteoMurcia.com, publica sus datos en los siguientes proyectos:

Weather Underground PWS IMURCIAP2 Meteoclimatic www.awekas.at

W3Counter
Web Analytics